createdAt,value
2018-06-17T00:01:39.683Z,18.67
2018-06-17T00:04:09.234Z,19.63
2018-06-17T00:06:38.702Z,18.17
2018-06-17T00:09:08.870Z,17.80
2018-06-17T00:11:38.355Z,17.40
2018-06-17T00:14:07.454Z,18.73
2018-06-17T00:16:36.893Z,18.90
2018-06-17T00:19:06.299Z,18.27
2018-06-17T00:21:35.581Z,20.30
2018-06-17T00:24:05.255Z,20.33
2018-06-17T00:26:35.071Z,21.40
2018-06-17T00:29:04.396Z,20.77
2018-06-17T00:31:33.679Z,22.40
2018-06-17T00:34:03.306Z,23.17
2018-06-17T00:36:32.896Z,24.53
2018-06-17T00:39:03.070Z,22.73
2018-06-17T00:41:33.190Z,23.47
2018-06-17T00:44:02.869Z,24.20
2018-06-17T00:46:32.480Z,23.53
2018-06-17T00:49:02.296Z,23.33
2018-06-17T00:51:32.178Z,26.07
2018-06-17T00:54:01.996Z,28.37
2018-06-17T00:56:31.782Z,32.33
2018-06-17T00:59:01.507Z,25.03
2018-06-17T01:01:31.186Z,23.20
2018-06-17T01:04:01.461Z,24.17
2018-06-17T01:06:31.304Z,25.70
2018-06-17T01:09:01.048Z,27.27
2018-06-17T01:11:31.286Z,28.57
2018-06-17T01:14:00.869Z,27.23
2018-06-17T01:16:31.131Z,27.03
2018-06-17T01:19:01.371Z,26.57
2018-06-17T01:21:31.157Z,26.73
2018-06-17T01:24:02.478Z,28.80
2018-06-17T01:26:31.991Z,28.23
2018-06-17T01:29:01.584Z,27.97
2018-06-17T01:31:31.672Z,26.93
2018-06-17T01:34:01.603Z,28.37
2018-06-17T01:36:31.200Z,29.30
2018-06-17T01:39:00.676Z,27.27
2018-06-17T01:41:30.292Z,27.80
2018-06-17T01:43:59.864Z,26.60
2018-06-17T01:46:29.377Z,28.20
2018-06-17T01:48:58.933Z,28.67
2018-06-17T01:51:29.966Z,28.47
2018-06-17T01:53:59.715Z,27.10
2018-06-17T01:56:29.271Z,24.73
2018-06-17T01:58:59.292Z,24.43
2018-06-17T02:01:28.830Z,24.00
2018-06-17T02:04:04.227Z,24.53
2018-06-17T02:06:39.002Z,25.57
2018-06-17T02:09:14.512Z,27.37
2018-06-17T02:11:47.323Z,29.00
2018-06-17T02:14:21.977Z,32.67
2018-06-17T02:16:51.587Z,32.33
2018-06-17T02:19:21.380Z,33.53
2018-06-17T02:21:50.956Z,34.43
2018-06-17T02:24:20.551Z,30.77
2018-06-17T02:26:50.175Z,31.83
2018-06-17T02:29:20.570Z,31.23
2018-06-17T02:31:51.099Z,33.13
2018-06-17T02:34:20.983Z,34.40
2018-06-17T02:36:50.664Z,34.30
2018-06-17T02:39:20.194Z,31.87
2018-06-17T02:41:50.416Z,35.87
2018-06-17T02:44:20.192Z,37.33
2018-06-17T02:46:54.852Z,35.93
2018-06-17T02:49:29.680Z,35.43
2018-06-17T02:52:04.477Z,34.53
2018-06-17T02:54:39.396Z,38.77
2018-06-17T02:57:10.407Z,40.00
2018-06-17T02:59:40.352Z,36.83
2018-06-17T03:02:10.610Z,31.77
2018-06-17T03:04:40.141Z,36.80
2018-06-17T03:07:09.808Z,40.63
2018-06-17T03:09:39.300Z,42.63
2018-06-17T03:12:08.932Z,38.20
2018-06-17T03:14:38.547Z,37.90
2018-06-17T03:17:08.509Z,33.23
2018-06-17T03:19:38.121Z,29.83
2018-06-17T03:22:07.940Z,26.63
2018-06-17T03:24:42.609Z,24.43
2018-06-17T03:27:17.488Z,22.37
2018-06-17T03:29:52.239Z,22.27
2018-06-17T03:32:26.956Z,23.93
2018-06-17T03:35:01.683Z,26.80
2018-06-17T03:37:31.067Z,22.97
2018-06-17T03:40:00.574Z,24.10
2018-06-17T03:42:30.430Z,21.93
2018-06-17T03:45:00.146Z,18.10
2018-06-17T03:47:29.810Z,19.77
2018-06-17T03:49:59.345Z,17.73
2018-06-17T03:52:29.237Z,19.50
2018-06-17T03:54:58.799Z,17.27
2018-06-17T03:57:28.412Z,17.70
2018-06-17T03:59:58.071Z,16.03
2018-06-17T04:02:27.673Z,14.80
2018-06-17T04:05:02.289Z,14.33
2018-06-17T04:07:32.425Z,15.00
2018-06-17T04:10:02.140Z,13.53
2018-06-17T04:12:31.740Z,13.40
2018-06-17T04:15:01.301Z,14.20
2018-06-17T04:17:30.705Z,14.30
2018-06-17T04:20:00.608Z,12.87
2018-06-17T04:22:29.863Z,12.83
2018-06-17T04:24:59.364Z,12.43
2018-06-17T04:27:28.916Z,11.97
2018-06-17T04:29:58.244Z,12.07
2018-06-17T04:32:27.951Z,11.80
2018-06-17T04:34:57.676Z,10.73
2018-06-17T04:37:27.333Z,12.43
2018-06-17T04:39:56.682Z,11.60
2018-06-17T04:42:26.141Z,12.20
2018-06-17T04:44:56.164Z,12.83
2018-06-17T04:47:25.668Z,12.30
2018-06-17T04:49:55.255Z,12.37
2018-06-17T04:52:24.853Z,11.50
2018-06-17T04:54:53.758Z,11.97
2018-06-17T04:57:23.571Z,12.00
2018-06-17T04:59:52.983Z,11.17
2018-06-17T05:02:22.412Z,12.50
2018-06-17T05:04:51.940Z,12.27
2018-06-17T05:07:21.412Z,12.73
2018-06-17T05:09:50.750Z,11.73
2018-06-17T05:12:20.445Z,12.57
2018-06-17T05:14:50.094Z,13.00
2018-06-17T05:17:19.524Z,13.17
2018-06-17T05:19:49.057Z,14.07
2018-06-17T05:22:18.664Z,11.83
2018-06-17T05:24:48.177Z,14.13
2018-06-17T05:27:17.720Z,15.17
2018-06-17T05:29:47.144Z,14.73
2018-06-17T05:32:16.648Z,15.57
2018-06-17T05:34:46.217Z,14.63
2018-06-17T05:37:15.557Z,15.30
2018-06-17T05:39:44.872Z,14.80
2018-06-17T05:42:14.745Z,14.90
2018-06-17T05:44:44.063Z,16.30
2018-06-17T05:47:13.460Z,16.10
2018-06-17T05:49:42.935Z,16.03
2018-06-17T05:52:12.525Z,16.77
2018-06-17T05:54:41.960Z,17.30
2018-06-17T05:57:11.722Z,17.37
2018-06-17T05:59:41.082Z,18.07
2018-06-17T06:02:10.395Z,17.70
2018-06-17T06:04:39.765Z,18.10
2018-06-17T06:07:09.214Z,12.73
2018-06-17T06:09:38.878Z,15.17
2018-06-17T06:12:08.610Z,15.57
2018-06-17T06:14:38.252Z,14.80
2018-06-17T06:17:07.820Z,13.97
2018-06-17T06:19:37.533Z,15.60
2018-06-17T06:22:07.069Z,14.60
2018-06-17T06:24:37.976Z,15.67
2018-06-17T06:27:07.509Z,15.40
2018-06-17T06:29:36.931Z,14.60
2018-06-17T06:32:06.002Z,14.67
2018-06-17T06:34:35.074Z,13.60
2018-06-17T06:37:04.610Z,11.00
2018-06-17T06:39:39.403Z,11.90
2018-06-17T06:42:08.892Z,10.77
2018-06-17T06:44:38.648Z,8.80
2018-06-17T06:47:08.092Z,8.67
2018-06-17T06:49:37.673Z,8.20
2018-06-17T06:52:07.164Z,7.67
2018-06-17T06:54:36.270Z,7.93
2018-06-17T06:57:06.033Z,8.17
2018-06-17T06:59:35.575Z,7.90
2018-06-17T07:02:15.699Z,7.63
2018-06-17T07:04:55.957Z,7.73
2018-06-17T07:07:35.909Z,7.00
2018-06-17T07:10:16.103Z,8.03
2018-06-17T07:12:45.632Z,7.67
2018-06-17T07:15:15.002Z,6.83
2018-06-17T07:17:55.361Z,6.13
2018-06-17T07:20:24.638Z,7.53
2018-06-17T07:22:54.149Z,6.53
2018-06-17T07:25:36.978Z,6.50
2018-06-17T07:28:23.114Z,6.83
2018-06-17T07:30:52.530Z,6.07
2018-06-17T07:33:21.905Z,6.47
2018-06-17T07:35:51.242Z,6.53
2018-06-17T07:38:21.034Z,6.60
2018-06-17T07:40:54.998Z,5.90
2018-06-17T07:43:24.588Z,5.23
2018-06-17T07:45:54.071Z,6.30
2018-06-17T07:49:43.029Z,5.70
2018-06-17T07:52:24.588Z,6.80
2018-06-17T07:54:54.166Z,6.33
2018-06-17T07:57:24.733Z,5.17
2018-06-17T07:59:54.458Z,6.83
2018-06-17T08:02:23.798Z,6.10
2018-06-17T08:04:53.379Z,6.23
2018-06-17T08:07:22.764Z,6.67
2018-06-17T08:09:52.310Z,6.43
2018-06-17T08:12:21.797Z,10.20
2018-06-17T08:14:51.254Z,6.57
2018-06-17T08:17:20.540Z,6.57
2018-06-17T08:19:49.991Z,6.33
2018-06-17T08:22:19.553Z,5.63
2018-06-17T08:24:48.955Z,6.47
2018-06-17T08:27:18.302Z,6.00
2018-06-17T08:29:47.658Z,6.00
2018-06-17T08:32:17.390Z,6.67
2018-06-17T08:34:46.740Z,7.10
2018-06-17T08:37:16.561Z,7.43
2018-06-17T08:39:46.132Z,6.80
2018-06-17T08:42:15.589Z,8.43
2018-06-17T08:44:45.109Z,7.37
2018-06-17T08:47:14.432Z,8.27
2018-06-17T08:49:44.068Z,8.50
2018-06-17T08:52:13.756Z,9.47
2018-06-17T08:54:43.346Z,7.30
2018-06-17T08:57:12.757Z,8.70
2018-06-17T08:59:42.156Z,9.33
2018-06-17T09:02:11.596Z,9.23
2018-06-17T09:04:41.013Z,9.03
2018-06-17T09:07:10.699Z,8.50
2018-06-17T09:09:40.265Z,9.40
2018-06-17T09:12:09.907Z,8.40
2018-06-17T09:14:39.563Z,8.23
2018-06-17T09:17:09.115Z,7.63
2018-06-17T09:19:38.402Z,5.47
2018-06-17T09:22:07.680Z,7.07
2018-06-17T09:24:37.558Z,7.07
2018-06-17T09:27:08.083Z,6.33
2018-06-17T09:29:37.900Z,5.47
2018-06-17T09:32:07.773Z,5.07
2018-06-17T09:34:37.120Z,6.83
2018-06-17T09:37:06.686Z,6.47
2018-06-17T09:39:35.751Z,5.40
2018-06-17T09:42:05.902Z,6.67
2018-06-17T09:44:35.440Z,6.53
2018-06-17T09:47:04.671Z,5.40
2018-06-17T09:49:34.652Z,5.73
2018-06-17T09:52:13.142Z,4.93
2018-06-17T09:54:42.673Z,4.80
2018-06-17T09:57:12.214Z,4.80
2018-06-17T09:59:41.825Z,4.33
2018-06-17T10:02:11.197Z,4.90
2018-06-17T10:04:40.704Z,5.33
2018-06-17T10:07:10.525Z,5.13
2018-06-17T10:11:06.535Z,5.87
2018-06-17T10:13:37.463Z,4.30
2018-06-17T10:16:07.176Z,4.17
2018-06-17T10:18:36.398Z,4.87
2018-06-17T10:21:06.021Z,5.37
2018-06-17T10:23:35.600Z,5.37
2018-06-17T10:26:04.867Z,5.20
2018-06-17T10:28:37.462Z,4.80
2018-06-17T10:31:07.793Z,4.40
2018-06-17T10:33:37.729Z,4.97
2018-06-17T10:36:07.284Z,4.77
2018-06-17T10:38:36.798Z,4.43
2018-06-17T10:41:06.399Z,3.93
2018-06-17T10:43:36.313Z,5.70
2018-06-17T10:46:05.513Z,4.40
2018-06-17T10:48:34.737Z,4.60
2018-06-17T10:51:04.136Z,5.07
2018-06-17T10:53:33.592Z,4.73
2018-06-17T10:56:03.134Z,4.23
2018-06-17T10:58:32.569Z,4.30
2018-06-17T11:01:02.027Z,4.23
2018-06-17T11:03:31.575Z,4.20
2018-06-17T11:06:01.114Z,4.90
2018-06-17T11:08:30.631Z,4.90
2018-06-17T11:11:00.122Z,4.13
2018-06-17T11:13:30.388Z,4.33
2018-06-17T11:16:00.157Z,4.13
2018-06-17T11:18:29.584Z,4.57
2018-06-17T11:20:59.266Z,4.20
2018-06-17T11:23:28.600Z,4.37
2018-06-17T11:25:58.434Z,4.40
2018-06-17T11:28:28.214Z,3.57
2018-06-17T11:30:57.690Z,3.70
2018-06-17T11:33:27.405Z,3.87
2018-06-17T11:35:57.153Z,4.00
2018-06-17T11:38:26.963Z,4.10
2018-06-17T11:40:57.770Z,3.80
2018-06-17T11:43:28.103Z,4.43
2018-06-17T11:45:57.660Z,4.53
2018-06-17T11:48:27.486Z,4.80
2018-06-17T11:50:57.011Z,4.23
2018-06-17T11:53:26.422Z,4.70
2018-06-17T11:55:56.032Z,3.97
2018-06-17T11:58:26.107Z,4.90
2018-06-17T12:00:55.882Z,4.53
2018-06-17T12:03:25.413Z,4.73
2018-06-17T12:05:56.374Z,4.97
2018-06-17T12:08:26.192Z,5.47
2018-06-17T12:10:55.827Z,4.87
2018-06-17T12:13:25.649Z,5.20
2018-06-17T12:15:55.268Z,5.10
2018-06-17T12:18:24.777Z,4.83
2018-06-17T12:20:54.532Z,4.53
2018-06-17T12:23:24.076Z,5.03
2018-06-17T12:25:53.623Z,5.03
2018-06-17T12:28:23.730Z,4.53
2018-06-17T12:30:54.209Z,5.20
2018-06-17T12:33:24.877Z,4.47
2018-06-17T12:35:54.696Z,4.63
2018-06-17T12:38:24.496Z,4.67
2018-06-17T12:40:54.300Z,4.43
2018-06-17T12:43:44.769Z,4.50
2018-06-17T12:46:14.838Z,4.60
2018-06-17T12:48:44.712Z,5.00
2018-06-17T12:51:14.514Z,4.87
2018-06-17T12:53:44.386Z,4.53
2018-06-17T12:56:14.123Z,4.50
2018-06-17T12:58:45.912Z,4.10
2018-06-17T13:01:16.259Z,4.40
2018-06-17T13:03:46.601Z,4.13
2018-06-17T13:06:16.162Z,4.03
2018-06-17T13:08:45.717Z,3.83
2018-06-17T13:11:15.440Z,3.80
2018-06-17T13:13:44.908Z,3.33
2018-06-17T13:16:14.334Z,3.70
2018-06-17T13:18:44.196Z,3.43
2018-06-17T13:21:14.477Z,3.30
2018-06-17T13:23:44.011Z,3.10
2018-06-17T13:26:13.277Z,3.10
2018-06-17T13:28:42.972Z,3.30
2018-06-17T13:31:12.424Z,2.90
2018-06-17T13:33:42.129Z,3.30
2018-06-17T13:36:12.194Z,3.20
2018-06-17T13:38:41.515Z,2.60
2018-06-17T13:41:11.666Z,2.63
2018-06-17T13:43:41.365Z,2.67
2018-06-17T13:46:10.857Z,2.47
2018-06-17T13:48:40.764Z,2.53
2018-06-17T13:51:10.308Z,2.60
2018-06-17T13:53:39.759Z,2.67
2018-06-17T13:56:09.824Z,2.40
2018-06-17T13:58:39.376Z,2.47
2018-06-17T14:01:08.770Z,2.00
2018-06-17T14:03:38.323Z,1.90
2018-06-17T14:06:08.376Z,2.20
2018-06-17T14:08:37.963Z,2.23
2018-06-17T14:11:07.661Z,1.83
2018-06-17T14:13:37.264Z,2.07
2018-06-17T14:16:07.295Z,2.10
2018-06-17T14:18:36.877Z,2.23
2018-06-17T14:21:06.088Z,2.27
2018-06-17T14:23:35.588Z,2.30
2018-06-17T14:26:05.286Z,2.13
2018-06-17T14:28:34.492Z,2.10
2018-06-17T14:31:04.087Z,2.03
2018-06-17T14:33:33.770Z,2.57
2018-06-17T14:36:02.970Z,1.90
2018-06-17T14:38:32.482Z,1.87
2018-06-17T14:41:06.903Z,1.27
2018-06-17T14:43:41.548Z,1.23
2018-06-17T14:46:16.083Z,1.60
2018-06-17T14:48:50.709Z,1.20
2018-06-17T14:51:25.858Z,2.13
2018-06-17T14:53:55.287Z,1.97
2018-06-17T14:56:24.801Z,2.10
2018-06-17T14:58:54.175Z,2.30
2018-06-17T15:01:23.733Z,2.00
2018-06-17T15:03:53.247Z,1.50
2018-06-17T15:06:22.578Z,2.27
2018-06-17T15:08:52.008Z,2.00
2018-06-17T15:11:21.432Z,2.00
2018-06-17T15:13:50.927Z,1.93
2018-06-17T15:16:20.605Z,1.83
2018-06-17T15:18:50.143Z,1.93
2018-06-17T15:21:19.576Z,2.20
2018-06-17T15:23:48.825Z,2.10
2018-06-17T15:26:18.445Z,2.27
2018-06-17T15:28:47.840Z,2.43
2018-06-17T15:31:22.201Z,1.90
2018-06-17T15:33:56.655Z,2.00
2018-06-17T15:36:31.557Z,1.80
2018-06-17T15:39:05.199Z,2.00
2018-06-17T15:41:34.434Z,1.90
2018-06-17T15:44:03.644Z,2.27
2018-06-17T15:46:34.716Z,2.20
2018-06-17T15:49:04.171Z,2.10
2018-06-17T15:51:33.798Z,2.10
2018-06-17T15:54:04.490Z,2.00
2018-06-17T15:56:33.879Z,1.67
2018-06-17T15:59:03.462Z,1.60
2018-06-17T16:01:32.048Z,2.10
2018-06-17T16:04:00.574Z,2.07
2018-06-17T16:06:29.990Z,1.70
2018-06-17T16:08:59.452Z,1.90
2018-06-17T16:11:29.147Z,1.80
2018-06-17T16:14:03.752Z,4.17
2018-06-17T16:16:38.170Z,2.00
2018-06-17T16:19:12.000Z,1.73
2018-06-17T16:21:41.521Z,1.63
2018-06-17T16:24:11.145Z,1.90
2018-06-17T16:26:40.847Z,1.90
2018-06-17T16:29:10.101Z,1.73
2018-06-17T16:31:39.678Z,1.70
2018-06-17T16:34:09.177Z,1.77
2018-06-17T16:36:38.742Z,2.00
2018-06-17T16:39:08.626Z,1.63
2018-06-17T16:41:38.293Z,1.90
2018-06-17T16:44:07.372Z,2.10
2018-06-17T16:46:37.244Z,2.00
2018-06-17T16:49:07.940Z,1.70
2018-06-17T16:51:42.425Z,1.77
2018-06-17T16:54:17.197Z,1.60
2018-06-17T16:56:51.780Z,1.97
2018-06-17T16:59:26.093Z,1.73
2018-06-17T17:01:55.573Z,1.80
2018-06-17T17:04:25.101Z,1.70
2018-06-17T17:06:54.844Z,1.67
2018-06-17T17:09:24.369Z,1.50
2018-06-17T17:11:53.858Z,1.80
2018-06-17T17:14:23.721Z,1.70
2018-06-17T17:16:53.320Z,2.33
2018-06-17T17:19:22.779Z,1.67
2018-06-17T17:21:52.505Z,1.70
2018-06-17T17:24:21.961Z,2.00
2018-06-17T17:26:51.448Z,1.80
2018-06-17T17:29:20.961Z,1.93
2018-06-17T17:31:55.658Z,1.80
2018-06-17T17:34:30.281Z,1.80
2018-06-17T17:37:04.991Z,1.73
2018-06-17T17:39:39.309Z,1.90
2018-06-17T17:42:08.714Z,1.80
2018-06-17T17:44:50.370Z,1.90
2018-06-17T17:47:22.500Z,2.03
2018-06-17T17:49:53.819Z,1.80
2018-06-17T17:52:23.383Z,1.57
2018-06-17T17:54:53.033Z,1.67
2018-06-17T17:57:22.431Z,2.00
2018-06-17T17:59:52.116Z,1.80
2018-06-17T18:02:22.138Z,2.07
2018-06-17T18:04:52.153Z,1.90
2018-06-17T18:07:21.884Z,2.37
2018-06-17T18:09:51.796Z,2.20
2018-06-17T18:12:22.584Z,1.87
2018-06-17T18:14:52.450Z,2.67
2018-06-17T18:17:22.082Z,2.30
2018-06-17T18:19:51.796Z,2.50
2018-06-17T18:22:21.760Z,2.13
2018-06-17T18:24:56.481Z,2.30
2018-06-17T18:27:31.286Z,2.60
2018-06-17T18:30:06.195Z,2.10
2018-06-17T18:32:40.881Z,2.00
2018-06-17T18:35:15.615Z,2.20
2018-06-17T18:37:45.272Z,2.53
2018-06-17T18:40:16.530Z,2.37
2018-06-17T18:42:46.335Z,2.20
2018-06-17T18:45:16.238Z,2.17
2018-06-17T18:47:46.076Z,2.47
2018-06-17T18:50:15.869Z,2.03
2018-06-17T18:52:44.986Z,2.03
2018-06-17T18:55:14.697Z,2.30
2018-06-17T18:57:45.200Z,2.50
2018-06-17T19:00:14.976Z,2.50
2018-06-17T19:02:44.603Z,2.10
2018-06-17T19:05:14.277Z,2.03
2018-06-17T19:07:44.203Z,2.03
2018-06-17T19:10:19.113Z,2.50
2018-06-17T19:12:54.264Z,2.67
2018-06-17T19:15:29.135Z,2.13
2018-06-17T19:18:12.390Z,2.50
2018-06-17T19:20:42.016Z,2.30
2018-06-17T19:23:11.995Z,2.70
2018-06-17T19:25:41.936Z,2.90
2018-06-17T19:28:12.903Z,3.27
2018-06-17T19:30:43.317Z,3.57
2018-06-17T19:33:13.129Z,3.17
2018-06-17T19:35:42.843Z,3.47
2018-06-17T19:38:12.944Z,3.43
2018-06-17T19:40:43.026Z,3.90
2018-06-17T19:43:12.737Z,3.77
2018-06-17T19:45:42.304Z,4.43
2018-06-17T19:48:11.919Z,4.00
2018-06-17T19:50:46.461Z,3.90
2018-06-17T19:53:21.139Z,3.70
2018-06-17T19:55:55.610Z,3.80
2018-06-17T19:58:30.161Z,4.10
2018-06-17T20:01:01.975Z,3.50
2018-06-17T20:03:31.695Z,4.30
2018-06-17T20:06:01.290Z,4.73
2018-06-17T20:08:31.160Z,4.67
2018-06-17T20:11:00.501Z,3.63
2018-06-17T20:13:30.295Z,3.40
2018-06-17T20:15:59.955Z,3.27
2018-06-17T20:18:29.697Z,3.83
2018-06-17T20:20:59.277Z,3.93
2018-06-17T20:23:28.677Z,3.33
2018-06-17T20:25:58.182Z,3.67
2018-06-17T20:28:28.210Z,4.13
2018-06-17T20:31:01.909Z,3.93
2018-06-17T20:33:36.845Z,3.83
2018-06-17T20:36:11.691Z,3.93
2018-06-17T20:38:46.238Z,3.20
2018-06-17T20:41:21.114Z,3.90
2018-06-17T20:43:52.429Z,3.97
2018-06-17T20:46:21.898Z,4.43
2018-06-17T20:48:51.407Z,3.87
2018-06-17T20:51:21.012Z,4.03
2018-06-17T20:53:50.334Z,4.13
2018-06-17T20:56:19.908Z,3.80
2018-06-17T20:58:49.278Z,4.60
2018-06-17T21:01:18.895Z,3.77
2018-06-17T21:03:48.405Z,4.07
2018-06-17T21:06:17.942Z,4.00
2018-06-17T21:08:47.258Z,4.40
2018-06-17T21:11:16.765Z,4.40
2018-06-17T21:13:46.322Z,3.90
2018-06-17T21:16:15.850Z,3.60
2018-06-17T21:18:50.171Z,3.77
2018-06-17T21:21:24.749Z,4.80
2018-06-17T21:23:59.425Z,4.10
2018-06-17T21:26:33.781Z,4.10
2018-06-17T21:29:03.309Z,4.13
2018-06-17T21:31:32.835Z,4.50
2018-06-17T21:34:03.689Z,3.90
2018-06-17T21:36:32.957Z,4.00
2018-06-17T21:39:02.421Z,3.73
2018-06-17T21:41:32.023Z,4.27
2018-06-17T21:44:01.368Z,4.10
2018-06-17T21:46:30.731Z,3.87
2018-06-17T21:49:00.205Z,4.13
2018-06-17T21:51:29.795Z,3.97
2018-06-17T21:53:59.381Z,4.40
2018-06-17T21:56:28.892Z,4.43
2018-06-17T21:58:58.683Z,4.20
2018-06-17T22:01:28.215Z,4.33
2018-06-17T22:04:03.145Z,4.20
2018-06-17T22:06:32.583Z,4.20
2018-06-17T22:09:07.899Z,4.00
2018-06-17T22:11:42.684Z,4.17
2018-06-17T22:14:17.397Z,4.03
2018-06-17T22:16:51.855Z,4.70
2018-06-17T22:19:21.737Z,4.23
2018-06-17T22:21:51.301Z,4.27
2018-06-17T22:24:20.294Z,4.03
2018-06-17T22:26:49.885Z,4.43
2018-06-17T22:29:19.417Z,4.30
2018-06-17T22:31:49.221Z,4.47
2018-06-17T22:34:18.747Z,4.50
2018-06-17T22:36:48.468Z,4.43
2018-06-17T22:39:17.840Z,4.60
2018-06-17T22:41:48.319Z,5.03
2018-06-17T22:44:18.137Z,5.13
2018-06-17T22:46:47.803Z,5.00
2018-06-17T22:49:17.355Z,4.87
2018-06-17T22:51:46.868Z,4.70
2018-06-17T22:54:27.645Z,5.00
2018-06-17T22:57:02.065Z,5.07
2018-06-17T22:59:36.667Z,4.77
2018-06-17T23:02:11.078Z,4.97
2018-06-17T23:04:45.034Z,4.57
2018-06-17T23:07:19.887Z,5.43
2018-06-17T23:09:50.690Z,4.70
2018-06-17T23:12:20.257Z,4.43
2018-06-17T23:14:49.857Z,4.37
2018-06-17T23:17:19.453Z,4.20
2018-06-17T23:19:49.957Z,4.77
2018-06-17T23:22:19.946Z,4.77
2018-06-17T23:24:49.867Z,5.00
2018-06-17T23:27:19.315Z,4.93
2018-06-17T23:29:48.989Z,4.30
2018-06-17T23:32:18.723Z,4.70
2018-06-17T23:34:49.076Z,4.27
2018-06-17T23:37:18.837Z,4.70
2018-06-17T23:39:48.370Z,5.10
2018-06-17T23:42:18.849Z,4.60
2018-06-17T23:44:48.725Z,4.87
2018-06-17T23:47:25.111Z,5.40
2018-06-17T23:50:00.084Z,4.67
2018-06-17T23:52:35.062Z,4.77
2018-06-17T23:55:09.767Z,5.33
2018-06-17T23:57:39.358Z,4.73
